TFM - Tactical Decision Aid
ID: Runway Winds: CIG/VIS Threshold:

KTTN - Trenton/Mercer Arpt, NJ, US

Updated at: 1806 UTC 26 Oct 2021
Latest TAF at: 1741 UTC 26 Oct 2021

TAF Board

Time1753Z 26/19Z 26/20Z 26/21Z 26/22Z 26/23Z 27/00Z 27/01Z 27/02Z 27/03Z 27/04Z 27/05Z 27/06Z 27/07Z>>
Type OBS PRVL PRVL PRVL PRVL PRVL PRVL PRVL PRVL PRVL PRVL PRVL PRVL PRVL
VIS 10 5 5 5 3 3 3 3 3 3 3 3 3 6
CIG 17 15 15 15 10 10 10 10 10 10 10 10 10 50
Cover OVC OVC OVC OVC OVC OVC OVC OVC OVC OVC OVC OVC OVC OVC
FltCat MVFR MVFR MVFR MVFR MVFR MVFR MVFR MVFR MVFR MVFR MVFR MVFR MVFR VFR
WX -- -SHRA -SHRA -SHRA RA RA RA RA -RA -RA -RA -RA -RA BR
WDir 290 340 340 340 10 10 10 10 10 10 10 10 10 350
WSpd 7 12 12 12 9 9 9 9 13 13 13 13 13 14
WGst -- 23 23 23 -- -- -- -- 22 22 22 22 22 23

TDA Impact Legend

  None Marginal Slight Moderate High
Visibility (sm) >5 3≤X≤5 2≤X<3 0.5≤X<2 <0.5
Ceiling (100 ft) >30 10≤X≤30 6≤X<10 2≤X<6 <2
Wind Speed (kt) <15 15≤X<25 25≤X<30 ≥30
Wind Gust (kt) <15 15≤X<25 25≤X<35 ≥35
Weather No Wx Reported VCTS -TS,-FZRA TS,FZRA +TS,+FZRA
TAF
KTTN 261741Z 2618/2718 25010G16KT P6SM BKN020 OVC050
  FM261900 34012G23KT 5SM -SHRA OVC015
  FM262200 01009KT 3SM RA OVC010
  FM270200 01013G22KT 3SM -RA OVC010
  FM270700 35014G23KT 6SM BR OVC050
  FM271500 36013KT 6SM BR BKN100


METAR
KTTN 261753Z 29007KT 10SM BKN017 OVC023 18/14 A2935 RMK AO2 SLP931 60007 T01780144 10183 20133 58012
KTTN 261653Z 25010G16KT 10SM BKN018 OVC055 18/14 A2936 RMK AO2 SLP934 T01780144
KTTN 261553Z 30012G17KT 10SM BKN015 OVC026 16/13 A2938 RMK AO2 SLP944 T01610133
KTTN 261453Z 28007KT 10SM BKN010 OVC020 14/13 A2940 RMK AO2 RAE26 SLP951 P0000 60007 T01440133 58001
KTTN 261446Z 30007KT 10SM BKN010 OVC020 14/14 A2940 RMK AO2 RAE26 P0000 T01440139

Radar Display
Forecast Discussion